Alberic, Spain
Current Conditions -  °F | °C
As of 9:00 PM on Friday 21 Nov 2014 (Local Time) from LEVC Reporting Station
Broken Clouds Broken Clouds  
Wind Chill: 61°   Ceiling: 2500
Heat Index: 61°   Visibility: 6mi
Dew Point: 59°   Wind: 2mph
Humidity: 94%   Direction: NA
Pressure: 30.09"   Gusts: NA
Location:  39.12°N, 0.52°W
Report Text: LEVC 212000Z VRB02KT 9999 BKN025 16/15 Q1019 NOSIG
Loading
Personal Weather Stations






























Interactive Weather Map New forecast layout! Learn more

10-Day Weather Forecast

Advertisements
Track Severe Weather on mobile